Time;durP1;ratioP1;P1;durP2;ratioP2;P2;SDS_P1;SDS_P2;PMS_P1;PMS_P2;Temp;Humidity;BMP_temperature;BMP_pressure;BME280_temperature;BME280_humidity;BME280_pressure;Samples;Min_cycle;Max_cycle;Signal;HPM_P1;HPM_P2
2021/12/19 00:00:29;;;;;;;0.70;0.50;;;;;;;;;;5114453;28;20039;-52
2021/12/19 00:03:18;;;;;;;0.50;0.40;;;;;;;;;;5095670;28;20109;-50
2021/12/19 00:08:48;;;;;;;0.47;0.47;;;;;;;;;;5073887;28;20072;-52
2021/12/19 00:11:13;;;;;;;0.47;0.47;;;;;;;;;;5093661;28;20472;-53
2021/12/19 00:13:40;;;;;;;0.90;0.60;;;;;;;;;;5093741;28;20033;-51
2021/12/19 00:16:05;;;;;;;0.90;0.52;;;;;;;;;;5093708;28;20032;-52
2021/12/19 00:18:30;;;;;;;0.93;0.50;;;;;;;;;;5093388;28;20495;-53
2021/12/19 00:20:56;;;;;;;0.95;0.70;;;;;;;;;;5093361;28;20474;-50
2021/12/19 00:23:21;;;;;;;1.30;0.55;;;;;;;;;;5093016;28;20511;-53
2021/12/19 00:25:46;;;;;;;0.60;0.60;;;;;;;;;;5092994;28;20085;-53
2021/12/19 00:28:12;;;;;;;2.33;0.70;;;;;;;;;;5093638;28;20032;-51
2021/12/19 00:30:37;;;;;;;0.57;0.57;;;;;;;;;;5093324;28;20036;-53
2021/12/19 00:33:02;;;;;;;0.77;0.50;;;;;;;;;;5093098;28;20031;-53
2021/12/19 00:35:28;;;;;;;0.65;0.40;;;;;;;;;;5092795;28;20194;-53
2021/12/19 00:37:53;;;;;;;1.02;0.90;;;;;;;;;;5074876;28;20056;-53
2021/12/19 00:40:20;;;;;;;1.35;0.90;;;;;;;;;;5104418;28;20127;-53
2021/12/19 00:42:52;;;;;;;0.98;0.68;;;;;;;;;;5097839;28;20054;-52
2021/12/19 00:45:30;;;;;;;0.55;0.50;;;;;;;;;;5113418;28;20034;-53
2021/12/19 00:47:55;;;;;;;0.68;0.50;;;;;;;;;;5113952;28;20026;-53
2021/12/19 00:50:21;;;;;;;0.93;0.75;;;;;;;;;;5112900;28;20036;-52
2021/12/19 00:52:46;;;;;;;1.42;0.82;;;;;;;;;;5112787;28;20028;-51
2021/12/19 00:55:16;;;;;;;1.58;0.60;;;;;;;;;;5112625;28;20032;-53
2021/12/19 00:57:41;;;;;;;0.80;0.65;;;;;;;;;;5112956;28;20055;-51
2021/12/19 01:00:08;;;;;;;0.80;0.63;;;;;;;;;;5112848;28;20032;-50
2021/12/19 01:02:33;;;;;;;0.80;0.60;;;;;;;;;;5099031;28;20369;-53
2021/12/19 01:04:59;;;;;;;0.50;0.40;;;;;;;;;;5072059;28;20043;-52
2021/12/19 01:07:24;;;;;;;0.65;0.57;;;;;;;;;;5072242;28;20036;-51
2021/12/19 01:09:49;;;;;;;0.55;0.40;;;;;;;;;;5083661;28;20392;-52
2021/12/19 01:12:14;;;;;;;0.93;0.70;;;;;;;;;;5091991;28;20032;-50
2021/12/19 01:14:40;;;;;;;0.75;0.50;;;;;;;;;;5092853;28;20016;-50
2021/12/19 01:17:05;;;;;;;1.15;0.50;;;;;;;;;;5092356;28;20393;-51
2021/12/19 01:19:31;;;;;;;1.50;0.50;;;;;;;;;;5092082;28;20081;-53
2021/12/19 01:21:56;;;;;;;0.57;0.50;;;;;;;;;;5092238;28;20038;-51
2021/12/19 01:24:21;;;;;;;0.50;0.35;;;;;;;;;;5092019;28;20111;-51
2021/12/19 01:26:46;;;;;;;0.88;0.73;;;;;;;;;;5092580;28;20476;-53
2021/12/19 01:29:12;;;;;;;2.47;0.47;;;;;;;;;;5092312;28;20028;-53
2021/12/19 01:31:37;;;;;;;1.27;0.52;;;;;;;;;;5092543;28;20089;-51
2021/12/19 01:34:03;;;;;;;1.73;0.68;;;;;;;;;;5092605;28;20044;-53
2021/12/19 01:36:28;;;;;;;0.70;0.47;;;;;;;;;;5092639;28;20112;-52
2021/12/19 01:38:53;;;;;;;1.15;0.57;;;;;;;;;;5093370;28;20032;-52
2021/12/19 01:41:18;;;;;;;0.73;0.50;;;;;;;;;;5091797;28;20106;-53
2021/12/19 01:43:44;;;;;;;0.30;0.30;;;;;;;;;;5094389;28;20036;-52
2021/12/19 01:46:09;;;;;;;0.60;0.60;;;;;;;;;;5096152;28;20031;-53
2021/12/19 01:48:34;;;;;;;0.60;0.50;;;;;;;;;;5095900;28;20074;-53
2021/12/19 01:50:59;;;;;;;0.73;0.52;;;;;;;;;;5096278;28;20089;-52
2021/12/19 01:53:25;;;;;;;1.02;0.70;;;;;;;;;;5095870;28;20508;-49
2021/12/19 01:55:50;;;;;;;0.63;0.50;;;;;;;;;;5095771;28;20039;-53
2021/12/19 01:58:16;;;;;;;0.57;0.45;;;;;;;;;;5095568;28;20032;-50
2021/12/19 02:00:43;;;;;;;1.00;0.55;;;;;;;;;;5095857;28;20042;-54
2021/12/19 02:03:10;;;;;;;0.63;0.63;;;;;;;;;;5095817;28;20016;-52
2021/12/19 02:05:35;;;;;;;0.75;0.47;;;;;;;;;;5096035;28;20063;-53
2021/12/19 02:08:02;;;;;;;0.52;0.52;;;;;;;;;;5095545;28;20052;-52
2021/12/19 02:10:28;;;;;;;0.75;0.60;;;;;;;;;;5095219;28;20040;-52
2021/12/19 02:12:54;;;;;;;0.90;0.60;;;;;;;;;;5095390;28;20047;-53
2021/12/19 02:15:21;;;;;;;0.73;0.60;;;;;;;;;;5095447;28;20483;-53
2021/12/19 02:17:48;;;;;;;0.70;0.60;;;;;;;;;;5095691;28;20028;-53
2021/12/19 02:20:14;;;;;;;1.08;0.75;;;;;;;;;;5095370;28;20766;-52
2021/12/19 02:22:39;;;;;;;1.05;0.60;;;;;;;;;;5095175;28;20032;-53
2021/12/19 02:25:05;;;;;;;1.02;0.65;;;;;;;;;;5095296;28;20044;-52
2021/12/19 02:27:30;;;;;;;0.93;0.68;;;;;;;;;;5095031;28;20039;-53
2021/12/19 02:29:56;;;;;;;1.73;0.77;;;;;;;;;;5095484;28;20032;-54
2021/12/19 02:32:22;;;;;;;1.05;0.65;;;;;;;;;;5095181;28;20376;-50
2021/12/19 02:34:50;;;;;;;0.90;0.70;;;;;;;;;;5094963;28;20392;-53
2021/12/19 02:37:50;;;;;;;1.15;0.68;;;;;;;;;;5095049;28;20032;-53
2021/12/19 02:40:24;;;;;;;0.60;0.60;;;;;;;;;;5095130;28;20036;-53
2021/12/19 02:48:16;;;;;;;1.65;0.70;;;;;;;;;;5095305;28;20136;-53
2021/12/19 02:50:49;;;;;;;0.95;0.65;;;;;;;;;;5095691;28;20046;-53
2021/12/19 02:53:17;;;;;;;0.57;0.57;;;;;;;;;;5095224;28;20050;-53
2021/12/19 02:55:43;;;;;;;0.60;0.57;;;;;;;;;;5094147;28;20503;-52
2021/12/19 02:58:09;;;;;;;0.70;0.50;;;;;;;;;;5095031;28;20040;-54
2021/12/19 03:00:34;;;;;;;0.85;0.63;;;;;;;;;;5095069;28;20109;-53
2021/12/19 03:02:59;;;;;;;0.77;0.52;;;;;;;;;;5095580;28;20027;-51
2021/12/19 03:05:25;;;;;;;0.40;0.40;;;;;;;;;;5094850;28;20036;-52
2021/12/19 03:07:52;;;;;;;0.43;0.40;;;;;;;;;;5095027;28;20081;-52
2021/12/19 03:10:54;;;;;;;0.50;0.50;;;;;;;;;;5094461;28;20036;-51
2021/12/19 03:18:28;;;;;;;1.55;0.40;;;;;;;;;;5094932;28;20031;-53
2021/12/19 03:20:53;;;;;;;0.77;0.65;;;;;;;;;;5094984;28;20024;-51
2021/12/19 03:23:19;;;;;;;0.65;0.43;;;;;;;;;;5094257;28;20488;-51
2021/12/19 03:25:45;;;;;;;0.93;0.40;;;;;;;;;;5094000;28;20097;-53
2021/12/19 03:28:10;;;;;;;1.00;0.70;;;;;;;;;;5094032;28;20043;-53
2021/12/19 03:30:37;;;;;;;0.70;0.50;;;;;;;;;;5093883;28;20024;-53
2021/12/19 03:33:02;;;;;;;0.50;0.47;;;;;;;;;;5094505;28;20032;-53
2021/12/19 03:35:29;;;;;;;0.47;0.38;;;;;;;;;;5087302;28;20020;-53
2021/12/19 03:37:54;;;;;;;0.60;0.40;;;;;;;;;;5074170;28;20067;-53
2021/12/19 03:40:24;;;;;;;0.40;0.32;;;;;;;;;;5074353;28;20056;-52
2021/12/19 03:42:51;;;;;;;0.50;0.35;;;;;;;;;;5074061;28;20504;-54
2021/12/19 03:45:17;;;;;;;0.70;0.45;;;;;;;;;;5073542;28;20083;-51
2021/12/19 03:47:43;;;;;;;0.60;0.45;;;;;;;;;;5074042;28;20464;-52
2021/12/19 03:50:10;;;;;;;0.30;0.30;;;;;;;;;;5073691;28;20101;-54
2021/12/19 03:52:35;;;;;;;2.47;0.50;;;;;;;;;;5108112;28;20032;-53
2021/12/19 03:55:02;;;;;;;0.35;0.35;;;;;;;;;;5096042;28;20031;-52
2021/12/19 03:57:28;;;;;;;0.52;0.40;;;;;;;;;;5114282;28;20027;-51
2021/12/19 03:59:53;;;;;;;0.35;0.35;;;;;;;;;;5114291;28;20024;-51
2021/12/19 04:02:24;;;;;;;0.28;0.20;;;;;;;;;;5101495;28;20035;-53
2021/12/19 04:04:50;;;;;;;0.30;0.30;;;;;;;;;;5093293;28;20434;-53
2021/12/19 04:07:16;;;;;;;0.70;0.40;;;;;;;;;;5093260;28;20028;-51
2021/12/19 04:09:41;;;;;;;0.30;0.30;;;;;;;;;;5081880;28;20064;-52
2021/12/19 04:12:08;;;;;;;0.20;0.15;;;;;;;;;;5072794;28;20028;-51
2021/12/19 04:14:33;;;;;;;0.40;0.40;;;;;;;;;;5073333;28;20056;-53
2021/12/19 04:16:58;;;;;;;0.43;0.32;;;;;;;;;;5072787;28;20060;-52
2021/12/19 04:19:25;;;;;;;0.13;0.13;;;;;;;;;;5072748;28;20041;-52
2021/12/19 04:21:50;;;;;;;0.43;0.30;;;;;;;;;;5073258;28;20033;-53
2021/12/19 04:24:15;;;;;;;0.35;0.28;;;;;;;;;;5073347;28;20522;-53
2021/12/19 04:26:41;;;;;;;0.50;0.40;;;;;;;;;;5073540;28;20366;-52
2021/12/19 04:29:06;;;;;;;0.13;0.13;;;;;;;;;;5073171;28;20132;-52
2021/12/19 04:31:31;;;;;;;0.28;0.28;;;;;;;;;;5072565;28;20040;-53
2021/12/19 04:33:57;;;;;;;0.35;0.20;;;;;;;;;;5072750;28;20028;-53
2021/12/19 04:36:28;;;;;;;0.75;0.45;;;;;;;;;;5073311;28;20059;-52
2021/12/19 04:58:20;;;;;;;0.30;0.30;;;;;;;;;;5044129;28;20095;-52
2021/12/19 05:01:10;;;;;;;0.30;0.30;;;;;;;;;;5028867;28;20037;-54
2021/12/19 05:03:51;;;;;;;0.77;0.30;;;;;;;;;;5009923;28;20025;-52
2021/12/19 05:14:39;;;;;;;0.57;0.57;;;;;;;;;;4952232;29;20035;-54
2021/12/19 05:17:08;;;;;;;0.43;0.40;;;;;;;;;;4934071;29;20040;-53
2021/12/19 05:19:47;;;;;;;0.38;0.32;;;;;;;;;;4933229;29;20102;-54
2021/12/19 05:22:13;;;;;;;0.63;0.30;;;;;;;;;;4933303;29;20560;-54
2021/12/19 05:24:49;;;;;;;0.63;0.35;;;;;;;;;;4981775;28;20070;-51
2021/12/19 05:27:14;;;;;;;2.63;0.32;;;;;;;;;;4989310;28;20057;-54
2021/12/19 05:29:40;;;;;;;0.40;0.40;;;;;;;;;;4976749;28;20503;-54
2021/12/19 05:32:05;;;;;;;1.05;0.35;;;;;;;;;;4990735;28;20042;-52
2021/12/19 05:34:31;;;;;;;0.28;0.20;;;;;;;;;;4990040;28;20592;-54
2021/12/19 05:45:11;;;;;;;0.30;0.30;;;;;;;;;;4990892;28;20041;-54
2021/12/19 05:47:37;;;;;;;0.30;0.30;;;;;;;;;;4991405;28;20022;-53
2021/12/19 05:50:06;;;;;;;0.35;0.28;;;;;;;;;;4997832;28;20403;-54
2021/12/19 05:52:31;;;;;;;0.20;0.20;;;;;;;;;;5088259;28;20055;-54
2021/12/19 05:54:56;;;;;;;0.40;0.30;;;;;;;;;;5099530;28;20110;-53
2021/12/19 05:57:22;;;;;;;0.80;0.50;;;;;;;;;;5092158;28;20032;-53
2021/12/19 05:59:47;;;;;;;0.45;0.45;;;;;;;;;;5092581;28;20028;-52
2021/12/19 06:02:12;;;;;;;0.98;0.60;;;;;;;;;;5092011;28;20020;-51
2021/12/19 06:04:38;;;;;;;0.57;0.50;;;;;;;;;;5091863;28;20040;-54
2021/12/19 06:07:03;;;;;;;0.43;0.40;;;;;;;;;;5091725;28;20101;-53
2021/12/19 06:09:28;;;;;;;0.40;0.40;;;;;;;;;;5082025;28;20872;-54
2021/12/19 06:11:54;;;;;;;2.50;0.55;;;;;;;;;;5072054;28;20033;-54
2021/12/19 06:14:19;;;;;;;1.05;0.65;;;;;;;;;;5071853;28;20033;-53
2021/12/19 06:16:44;;;;;;;0.43;0.22;;;;;;;;;;5072055;28;20036;-52
2021/12/19 06:19:10;;;;;;;0.80;0.60;;;;;;;;;;5072323;28;20036;-54
2021/12/19 06:21:35;;;;;;;0.70;0.32;;;;;;;;;;5071882;28;20114;-54
2021/12/19 06:24:01;;;;;;;2.70;0.30;;;;;;;;;;5071670;28;20439;-54
2021/12/19 06:26:27;;;;;;;0.32;0.32;;;;;;;;;;5071377;28;20036;-53
2021/12/19 06:28:52;;;;;;;0.30;0.30;;;;;;;;;;5071802;28;20384;-54
2021/12/19 06:31:17;;;;;;;0.68;0.40;;;;;;;;;;5093845;28;20028;-53
2021/12/19 06:33:43;;;;;;;0.63;0.45;;;;;;;;;;5096042;28;20476;-53
2021/12/19 06:36:09;;;;;;;1.88;0.47;;;;;;;;;;5095285;28;20476;-54
2021/12/19 06:38:34;;;;;;;1.73;0.40;;;;;;;;;;5077967;28;20102;-54
2021/12/19 06:41:00;;;;;;;1.25;0.52;;;;;;;;;;5095061;28;20161;-54
2021/12/19 06:43:26;;;;;;;0.82;0.40;;;;;;;;;;5094719;28;20552;-53
2021/12/19 06:45:52;;;;;;;1.02;0.50;;;;;;;;;;5094997;28;20036;-54
2021/12/19 06:48:19;;;;;;;0.95;0.35;;;;;;;;;;5094940;28;20040;-59
2021/12/19 06:50:45;;;;;;;2.17;0.55;;;;;;;;;;5097910;28;20028;-53
2021/12/19 06:53:10;;;;;;;1.00;0.40;;;;;;;;;;5115529;28;20556;-52
2021/12/19 06:55:37;;;;;;;0.55;0.45;;;;;;;;;;5096637;28;20068;-53
2021/12/19 06:58:02;;;;;;;0.43;0.35;;;;;;;;;;5094719;28;20090;-53
2021/12/19 07:00:27;;;;;;;1.15;0.40;;;;;;;;;;5095263;28;20036;-54
2021/12/19 07:02:54;;;;;;;0.40;0.28;;;;;;;;;;5095759;28;20080;-54
2021/12/19 07:05:20;;;;;;;0.98;0.45;;;;;;;;;;5094855;28;20051;-54
2021/12/19 07:07:45;;;;;;;0.28;0.22;;;;;;;;;;5094495;28;20028;-53
2021/12/19 07:10:10;;;;;;;1.00;0.30;;;;;;;;;;5077584;28;20033;-54
2021/12/19 07:12:35;;;;;;;0.40;0.38;;;;;;;;;;5074392;28;20025;-55
2021/12/19 07:15:01;;;;;;;2.85;0.85;;;;;;;;;;5075074;28;20024;-53
2021/12/19 07:17:27;;;;;;;2.00;0.40;;;;;;;;;;5074595;28;20044;-53
2021/12/19 07:19:52;;;;;;;0.35;0.25;;;;;;;;;;5074141;28;20036;-51
2021/12/19 07:22:18;;;;;;;0.10;0.10;;;;;;;;;;5074088;28;20032;-54
2021/12/19 07:24:45;;;;;;;0.40;0.25;;;;;;;;;;5073653;28;20045;-54
2021/12/19 07:27:10;;;;;;;1.00;0.50;;;;;;;;;;5073913;28;20070;-53
2021/12/19 07:29:35;;;;;;;1.45;0.68;;;;;;;;;;5079293;28;20020;-50
2021/12/19 07:32:03;;;;;;;1.83;0.30;;;;;;;;;;5093933;28;20081;-53
2021/12/19 07:34:33;;;;;;;0.90;0.32;;;;;;;;;;5093778;28;20039;-53
2021/12/19 07:37:00;;;;;;;1.42;0.50;;;;;;;;;;5094063;28;20024;-52
2021/12/19 07:42:02;;;;;;;0.65;0.30;;;;;;;;;;5094585;28;20028;-53
2021/12/19 07:44:28;;;;;;;0.40;0.15;;;;;;;;;;5094309;28;20035;-53
2021/12/19 07:46:53;;;;;;;1.38;0.20;;;;;;;;;;5094226;28;20486;-53
2021/12/19 07:49:18;;;;;;;0.40;0.20;;;;;;;;;;5093941;28;20228;-53
2021/12/19 07:51:43;;;;;;;0.28;0.20;;;;;;;;;;5103989;28;20028;-51
2021/12/19 07:54:08;;;;;;;0.73;0.20;;;;;;;;;;5114127;28;20112;-54
2021/12/19 07:56:34;;;;;;;1.02;0.35;;;;;;;;;;5114391;28;20028;-52
2021/12/19 07:59:00;;;;;;;0.40;0.28;;;;;;;;;;5113941;28;20043;-52
2021/12/19 08:01:25;;;;;;;1.60;0.30;;;;;;;;;;5114206;28;20055;-51
2021/12/19 08:03:50;;;;;;;0.25;0.20;;;;;;;;;;5114083;28;20036;-52
2021/12/19 08:06:15;;;;;;;0.38;0.20;;;;;;;;;;5114074;28;20027;-53
2021/12/19 08:08:46;;;;;;;1.65;0.30;;;;;;;;;;5111125;28;20044;-53
2021/12/19 08:13:56;;;;;;;4.57;0.90;;;;;;;;;;5093582;28;20067;-54
2021/12/19 08:16:21;;;;;;;0.20;0.10;;;;;;;;;;5089279;28;20049;-52
2021/12/19 08:18:46;;;;;;;1.52;0.40;;;;;;;;;;5072897;28;20040;-52
2021/12/19 08:21:11;;;;;;;1.52;0.40;;;;;;;;;;5072725;28;20025;-53
2021/12/19 08:23:36;;;;;;;0.82;0.30;;;;;;;;;;5073209;28;20028;-54
2021/12/19 08:26:02;;;;;;;2.28;0.98;;;;;;;;;;5072748;28;20044;-52
2021/12/19 08:28:27;;;;;;;1.10;0.32;;;;;;;;;;5072409;28;20110;-54
2021/12/19 08:30:52;;;;;;;1.50;0.22;;;;;;;;;;5088258;28;20035;-53
2021/12/19 08:33:17;;;;;;;3.88;0.63;;;;;;;;;;5093408;28;20024;-53
2021/12/19 08:35:43;;;;;;;2.97;0.80;;;;;;;;;;5093930;28;20506;-53
2021/12/19 08:38:08;;;;;;;0.77;0.28;;;;;;;;;;5103867;28;20549;-53
2021/12/19 08:40:33;;;;;;;1.38;0.32;;;;;;;;;;5113246;28;20038;-53
2021/12/19 08:42:59;;;;;;;3.42;0.70;;;;;;;;;;5105679;28;20036;-53
2021/12/19 08:45:24;;;;;;;2.03;0.63;;;;;;;;;;5092637;28;20028;-54
2021/12/19 08:47:50;;;;;;;3.05;0.57;;;;;;;;;;5093324;28;20130;-55
2021/12/19 08:50:15;;;;;;;1.48;0.30;;;;;;;;;;5093035;28;20062;-55
2021/12/19 08:52:42;;;;;;;4.05;0.68;;;;;;;;;;5110697;28;20476;-53
2021/12/19 08:55:08;;;;;;;2.58;0.93;;;;;;;;;;5113138;28;20441;-52
2021/12/19 08:57:33;;;;;;;3.60;0.60;;;;;;;;;;5112608;28;20027;-54
2021/12/19 08:59:58;;;;;;;2.80;0.70;;;;;;;;;;5113224;28;20511;-53
2021/12/19 09:02:24;;;;;;;4.22;0.82;;;;;;;;;;5113191;28;20106;-53
2021/12/19 09:04:49;;;;;;;2.80;0.50;;;;;;;;;;5113199;28;20051;-55
2021/12/19 09:07:15;;;;;;;3.45;0.75;;;;;;;;;;5113196;28;20035;-55
2021/12/19 09:09:40;;;;;;;4.13;0.85;;;;;;;;;;5101483;28;20138;-53
2021/12/19 09:12:06;;;;;;;3.33;0.60;;;;;;;;;;5093057;28;20024;-53
2021/12/19 09:14:31;;;;;;;2.13;0.50;;;;;;;;;;5072800;28;20041;-54
2021/12/19 09:16:56;;;;;;;3.38;0.63;;;;;;;;;;5072415;28;20086;-54
2021/12/19 09:19:21;;;;;;;4.78;1.15;;;;;;;;;;5072093;28;20040;-53
2021/12/19 09:21:47;;;;;;;2.33;0.80;;;;;;;;;;5072205;28;20459;-53
2021/12/19 09:24:12;;;;;;;1.38;0.50;;;;;;;;;;5071898;28;20052;-53
2021/12/19 09:26:37;;;;;;;1.27;0.60;;;;;;;;;;5072602;28;20037;-54
2021/12/19 09:29:03;;;;;;;3.47;1.33;;;;;;;;;;5072777;28;20464;-53
2021/12/19 09:31:29;;;;;;;3.40;0.88;;;;;;;;;;5074754;28;20021;-53
2021/12/19 09:33:54;;;;;;;3.03;0.90;;;;;;;;;;5092003;28;20052;-53
2021/12/19 09:36:19;;;;;;;1.80;0.57;;;;;;;;;;5094971;28;20048;-53
2021/12/19 09:38:48;;;;;;;2.58;0.68;;;;;;;;;;5098590;28;20484;-53
2021/12/19 09:41:16;;;;;;;3.22;0.55;;;;;;;;;;5098444;28;20069;-53
2021/12/19 09:43:42;;;;;;;3.85;0.65;;;;;;;;;;5104390;28;20019;-53
2021/12/19 09:46:08;;;;;;;1.52;0.65;;;;;;;;;;5097799;28;20517;-54
2021/12/19 09:48:34;;;;;;;4.40;0.82;;;;;;;;;;5090759;28;20155;-53
2021/12/19 09:50:59;;;;;;;4.00;0.68;;;;;;;;;;5102380;28;20106;-52
2021/12/19 09:53:24;;;;;;;3.45;0.77;;;;;;;;;;5102101;28;20117;-50
2021/12/19 09:55:49;;;;;;;3.22;1.30;;;;;;;;;;5088341;28;20036;-52
2021/12/19 09:58:14;;;;;;;7.78;0.70;;;;;;;;;;5090424;28;20032;-51
2021/12/19 10:00:40;;;;;;;3.47;0.88;;;;;;;;;;5090625;28;20043;-51
2021/12/19 10:03:05;;;;;;;11.32;1.02;;;;;;;;;;5091271;28;20043;-52
2021/12/19 10:05:30;;;;;;;6.88;0.82;;;;;;;;;;5091304;28;20034;-50
2021/12/19 10:08:01;;;;;;;7.32;1.10;;;;;;;;;;5094396;28;20027;-51
2021/12/19 10:10:58;;;;;;;11.68;1.23;;;;;;;;;;5093855;28;20032;-51
2021/12/19 10:13:36;;;;;;;9.18;1.77;;;;;;;;;;5104923;28;20487;-53
2021/12/19 10:16:21;;;;;;;10.98;1.92;;;;;;;;;;5115730;28;20042;-54
2021/12/19 10:18:50;;;;;;;6.20;1.27;;;;;;;;;;5115792;28;20161;-54
2021/12/19 10:21:17;;;;;;;7.75;1.77;;;;;;;;;;5115651;28;20037;-53
2021/12/19 10:23:43;;;;;;;10.48;1.45;;;;;;;;;;5116616;28;20023;-54
2021/12/19 10:26:09;;;;;;;10.27;1.27;;;;;;;;;;5116285;28;20036;-54
2021/12/19 10:29:04;;;;;;;5.57;1.20;;;;;;;;;;5115595;28;20053;-54
2021/12/19 10:31:29;;;;;;;13.98;1.85;;;;;;;;;;4993507;28;20041;-54
2021/12/19 10:33:54;;;;;;;4.10;1.00;;;;;;;;;;4993697;28;20395;-53
2021/12/19 10:36:19;;;;;;;7.28;1.15;;;;;;;;;;4980066;28;20039;-54
2021/12/19 10:38:48;;;;;;;7.72;1.40;;;;;;;;;;4974923;28;20109;-53
2021/12/19 10:41:20;;;;;;;5.82;0.93;;;;;;;;;;4973721;28;20050;-52
2021/12/19 10:44:02;;;;;;;7.35;0.93;;;;;;;;;;4973439;28;20039;-55
2021/12/19 10:46:31;;;;;;;9.65;1.35;;;;;;;;;;4974072;28;20110;-53
2021/12/19 10:48:57;;;;;;;6.25;0.88;;;;;;;;;;4974140;28;20417;-53
2021/12/19 10:51:22;;;;;;;8.82;1.08;;;;;;;;;;4982167;28;20086;-53
2021/12/19 10:53:49;;;;;;;7.90;1.25;;;;;;;;;;4980290;28;20071;-55
2021/12/19 10:56:20;;;;;;;6.70;1.25;;;;;;;;;;4961926;28;20027;-55
2021/12/19 10:58:57;;;;;;;3.22;0.95;;;;;;;;;;4963308;28;20089;-54
2021/12/19 11:01:29;;;;;;;7.35;1.25;;;;;;;;;;4963569;28;20038;-54
2021/12/19 11:04:00;;;;;;;13.10;1.83;;;;;;;;;;4962782;28;20034;-55
2021/12/19 11:06:36;;;;;;;7.88;1.33;;;;;;;;;;4981437;28;20070;-52
2021/12/19 11:09:09;;;;;;;8.52;1.20;;;;;;;;;;5100427;28;20029;-52
2021/12/19 11:11:46;;;;;;;5.47;1.20;;;;;;;;;;5101312;28;20040;-52
2021/12/19 11:14:15;;;;;;;4.78;1.23;;;;;;;;;;5101594;28;20032;-52
2021/12/19 11:16:41;;;;;;;15.63;1.52;;;;;;;;;;5097183;28;20661;-54
2021/12/19 11:19:07;;;;;;;13.90;1.13;;;;;;;;;;5103024;28;20494;-54
2021/12/19 11:21:34;;;;;;;4.45;0.80;;;;;;;;;;5098521;28;20050;-51
2021/12/19 11:24:04;;;;;;;8.82;1.50;;;;;;;;;;5100322;28;20471;-55
2021/12/19 11:26:30;;;;;;;3.38;0.93;;;;;;;;;;5099466;28;21259;-55
2021/12/19 11:28:56;;;;;;;3.47;1.08;;;;;;;;;;5093041;28;20111;-53
2021/12/19 11:31:21;;;;;;;4.20;1.20;;;;;;;;;;5103074;28;20056;-54
2021/12/19 11:34:03;;;;;;;7.03;1.75;;;;;;;;;;5103282;28;20075;-55
2021/12/19 11:36:33;;;;;;;5.20;1.08;;;;;;;;;;5098096;28;20111;-54
2021/12/19 11:39:00;;;;;;;5.65;1.45;;;;;;;;;;5110526;28;20023;-55
2021/12/19 11:41:25;;;;;;;7.38;1.83;;;;;;;;;;5102393;28;20028;-55
2021/12/19 11:43:54;;;;;;;11.63;2.08;;;;;;;;;;5090672;28;20720;-56
2021/12/19 11:46:39;;;;;;;5.82;0.80;;;;;;;;;;5093809;28;20437;-54
2021/12/19 11:49:27;;;;;;;6.32;1.00;;;;;;;;;;5092072;28;20031;-55
2021/12/19 11:52:15;;;;;;;6.60;1.23;;;;;;;;;;5096746;28;20036;-55
2021/12/19 11:54:41;;;;;;;2.63;0.88;;;;;;;;;;5078105;28;20040;-54
2021/12/19 11:57:09;;;;;;;7.20;1.63;;;;;;;;;;5092746;28;20542;-53
2021/12/19 11:59:36;;;;;;;2.97;1.05;;;;;;;;;;5098863;28;20032;-53
2021/12/19 12:02:20;;;;;;;7.63;1.08;;;;;;;;;;5090095;28;20036;-55
2021/12/19 12:05:05;;;;;;;5.82;1.25;;;;;;;;;;5087513;28;20050;-53
2021/12/19 12:07:50;;;;;;;10.52;1.83;;;;;;;;;;5090510;28;20047;-55
2021/12/19 12:10:15;;;;;;;9.30;1.55;;;;;;;;;;5087889;28;20035;-54
2021/12/19 12:12:48;;;;;;;2.90;0.88;;;;;;;;;;5094947;28;20123;-55
2021/12/19 12:15:13;;;;;;;5.93;1.38;;;;;;;;;;5092074;28;20028;-55
2021/12/19 12:17:45;;;;;;;9.57;1.70;;;;;;;;;;5096525;28;20390;-54
2021/12/19 12:20:20;;;;;;;4.40;0.88;;;;;;;;;;5095499;28;20031;-52
2021/12/19 12:22:53;;;;;;;6.20;1.98;;;;;;;;;;5091091;28;20759;-53
2021/12/19 12:25:30;;;;;;;4.30;1.30;;;;;;;;;;5088008;28;20048;-48
2021/12/19 12:28:02;;;;;;;5.18;1.30;;;;;;;;;;5086274;28;21533;-52
2021/12/19 12:30:28;;;;;;;6.30;1.27;;;;;;;;;;5096794;28;20031;-51
2021/12/19 12:32:53;;;;;;;5.90;1.25;;;;;;;;;;5091868;28;20012;-54
2021/12/19 12:35:19;;;;;;;7.43;1.83;;;;;;;;;;5087421;28;20477;-54
2021/12/19 12:37:47;;;;;;;3.00;0.80;;;;;;;;;;5086978;28;20488;-54
2021/12/19 12:43:09;;;;;;;2.63;1.02;;;;;;;;;;5086983;28;20488;-53
2021/12/19 12:45:49;;;;;;;4.03;1.05;;;;;;;;;;5087048;28;20519;-55
2021/12/19 12:48:34;;;;;;;6.70;1.07;;;;;;;;;;5087084;28;20019;-54
2021/12/19 12:51:02;;;;;;;5.63;1.33;;;;;;;;;;5086740;28;20457;-55
2021/12/19 12:53:32;;;;;;;4.50;1.30;;;;;;;;;;5085574;28;20032;-55
2021/12/19 12:56:18;;;;;;;2.28;0.88;;;;;;;;;;5094615;28;20107;-54
2021/12/19 12:58:51;;;;;;;3.90;1.25;;;;;;;;;;5085089;28;20032;-55
2021/12/19 13:01:19;;;;;;;3.90;1.52;;;;;;;;;;5090815;28;20027;-56
2021/12/19 13:03:58;;;;;;;5.82;1.52;;;;;;;;;;5089746;28;20035;-56
2021/12/19 13:07:03;;;;;;;4.70;2.10;;;;;;;;;;5096392;28;20027;-56
2021/12/19 13:09:36;;;;;;;5.78;1.35;;;;;;;;;;4979126;28;20076;-56
2021/12/19 13:12:24;;;;;;;5.03;1.38;;;;;;;;;;4979616;28;20045;-55
2021/12/19 13:14:56;;;;;;;4.57;1.00;;;;;;;;;;4985045;28;20046;-57
2021/12/19 13:17:21;;;;;;;6.05;1.20;;;;;;;;;;4991621;28;20399;-55
2021/12/19 13:19:46;;;;;;;3.70;1.15;;;;;;;;;;4988000;28;20046;-55
2021/12/19 13:22:30;;;;;;;4.35;1.33;;;;;;;;;;4989799;28;20034;-52
2021/12/19 13:24:58;;;;;;;7.45;1.15;;;;;;;;;;4991069;28;20061;-54
2021/12/19 13:27:28;;;;;;;4.32;1.13;;;;;;;;;;4977949;28;20042;-54
2021/12/19 13:30:10;;;;;;;2.25;0.85;;;;;;;;;;4994272;28;20037;-53
2021/12/19 13:32:35;;;;;;;4.13;1.15;;;;;;;;;;4995280;28;20159;-53
2021/12/19 13:35:02;;;;;;;3.73;0.70;;;;;;;;;;4992684;28;20586;-52
2021/12/19 13:37:32;;;;;;;4.10;0.95;;;;;;;;;;4993140;28;20427;-52
2021/12/19 13:40:06;;;;;;;4.97;1.30;;;;;;;;;;5037985;28;20165;-52
2021/12/19 13:42:38;;;;;;;3.88;1.00;;;;;;;;;;5096986;28;20028;-52
2021/12/19 13:45:41;;;;;;;3.33;1.55;;;;;;;;;;5099516;28;20165;-50
2021/12/19 13:48:08;;;;;;;4.88;0.93;;;;;;;;;;4994777;28;20034;-52
2021/12/19 13:50:39;;;;;;;7.63;1.17;;;;;;;;;;5006678;28;20130;-52
2021/12/19 13:53:04;;;;;;;5.85;1.20;;;;;;;;;;4993880;28;20529;-53
2021/12/19 13:55:39;;;;;;;4.32;1.13;;;;;;;;;;4988593;28;20042;-51
2021/12/19 13:58:05;;;;;;;5.68;1.27;;;;;;;;;;4988258;28;20054;-52
2021/12/19 14:00:35;;;;;;;8.68;1.33;;;;;;;;;;4987855;28;20070;-50
2021/12/19 14:03:01;;;;;;;3.97;0.90;;;;;;;;;;4988610;28;20046;-53
2021/12/19 14:05:30;;;;;;;15.57;1.35;;;;;;;;;;4988704;28;20037;-53
2021/12/19 14:07:55;;;;;;;9.05;1.20;;;;;;;;;;4987913;28;20782;-52
2021/12/19 14:10:21;;;;;;;2.88;0.90;;;;;;;;;;4987751;28;20092;-53
2021/12/19 14:15:27;;;;;;;5.05;1.00;;;;;;;;;;4987997;28;20487;-52
2021/12/19 14:17:52;;;;;;;2.10;1.05;;;;;;;;;;4990682;28;20030;-52
2021/12/19 14:20:31;;;;;;;3.85;0.90;;;;;;;;;;4988418;28;20098;-52
2021/12/19 14:23:13;;;;;;;5.25;1.20;;;;;;;;;;5075889;28;20024;-55
2021/12/19 14:25:38;;;;;;;3.35;0.98;;;;;;;;;;5095172;28;20538;-51
2021/12/19 14:28:15;;;;;;;3.77;1.00;;;;;;;;;;5101229;28;20135;-52
2021/12/19 14:30:41;;;;;;;3.10;0.82;;;;;;;;;;5090701;28;20445;-51
2021/12/19 14:33:06;;;;;;;4.47;1.30;;;;;;;;;;5089990;28;20023;-51
2021/12/19 14:35:33;;;;;;;9.38;1.42;;;;;;;;;;5095600;28;20480;-53
2021/12/19 14:37:59;;;;;;;4.00;1.30;;;;;;;;;;5096667;28;20028;-55
2021/12/19 14:40:25;;;;;;;7.85;1.05;;;;;;;;;;5088943;28;20103;-54
2021/12/19 14:42:56;;;;;;;4.95;0.82;;;;;;;;;;5089375;28;20115;-54
2021/12/19 14:45:24;;;;;;;2.22;0.90;;;;;;;;;;5074436;28;20036;-54
2021/12/19 14:47:51;;;;;;;5.03;1.05;;;;;;;;;;5096192;28;20012;-54
2021/12/19 14:50:24;;;;;;;4.32;0.95;;;;;;;;;;5095664;28;20028;-53
2021/12/19 14:53:00;;;;;;;9.05;1.17;;;;;;;;;;5069519;28;20032;-53
2021/12/19 14:55:26;;;;;;;7.60;1.33;;;;;;;;;;5084551;28;20036;-54
2021/12/19 14:57:51;;;;;;;6.20;1.00;;;;;;;;;;5099489;28;20039;-55
2021/12/19 15:00:17;;;;;;;5.80;0.98;;;;;;;;;;5099908;28;20023;-54
2021/12/19 15:02:42;;;;;;;4.82;1.20;;;;;;;;;;5082219;28;20701;-54
2021/12/19 15:05:07;;;;;;;4.30;1.52;;;;;;;;;;5108274;28;20056;-56
2021/12/19 15:07:32;;;;;;;5.13;1.08;;;;;;;;;;5090999;28;20403;-54
2021/12/19 15:09:58;;;;;;;3.10;1.00;;;;;;;;;;5095543;28;20032;-56
2021/12/19 15:12:23;;;;;;;4.97;1.05;;;;;;;;;;5088847;28;20031;-54
2021/12/19 15:14:48;;;;;;;4.40;0.93;;;;;;;;;;5089473;28;20139;-54
2021/12/19 15:17:13;;;;;;;4.90;0.93;;;;;;;;;;5089289;28;20047;-55
2021/12/19 15:19:39;;;;;;;4.22;1.15;;;;;;;;;;5088788;28;20028;-54
2021/12/19 15:22:04;;;;;;;4.45;1.67;;;;;;;;;;5088867;28;20063;-54
2021/12/19 15:24:29;;;;;;;7.18;1.00;;;;;;;;;;5089199;28;20150;-53
2021/12/19 15:26:54;;;;;;;3.40;1.20;;;;;;;;;;5088327;28;20036;-54
2021/12/19 15:29:20;;;;;;;4.28;1.20;;;;;;;;;;5091090;28;20040;-55
2021/12/19 15:31:45;;;;;;;5.95;1.20;;;;;;;;;;5099475;28;20032;-57
2021/12/19 15:34:10;;;;;;;2.83;0.80;;;;;;;;;;5078797;28;20544;-55
2021/12/19 15:36:36;;;;;;;5.82;1.60;;;;;;;;;;5095041;28;20525;-54
2021/12/19 15:39:05;;;;;;;5.57;1.38;;;;;;;;;;5088881;28;20356;-56
2021/12/19 15:41:31;;;;;;;7.32;1.45;;;;;;;;;;5081016;28;20039;-56
2021/12/19 15:43:56;;;;;;;3.75;0.90;;;;;;;;;;5094673;28;20023;-54
2021/12/19 15:46:21;;;;;;;5.32;1.30;;;;;;;;;;5093281;28;20050;-54
2021/12/19 15:48:47;;;;;;;9.90;1.58;;;;;;;;;;5091038;28;20028;-53